sensor_id;sensor_type;location;lat;lon;timestamp;P1;durP1;ratioP1;P2;durP2;ratioP2
15381;SDS011;7789;51.364;12.358;2024-03-02T00:02:23;29.13;;;21.07;;
15381;SDS011;7789;51.364;12.358;2024-03-02T00:07:28;33.10;;;22.47;;
15381;SDS011;7789;51.364;12.358;2024-03-02T00:12:33;33.13;;;21.47;;
15381;SDS011;7789;51.364;12.358;2024-03-02T00:17:37;33.50;;;22.87;;
15381;SDS011;7789;51.364;12.358;2024-03-02T00:22:42;33.50;;;22.33;;
15381;SDS011;7789;51.364;12.358;2024-03-02T00:27:47;29.40;;;21.40;;
15381;SDS011;7789;51.364;12.358;2024-03-02T00:32:51;30.67;;;22.67;;
15381;SDS011;7789;51.364;12.358;2024-03-02T00:37:56;33.07;;;21.43;;
15381;SDS011;7789;51.364;12.358;2024-03-02T00:43:00;32.13;;;21.60;;
15381;SDS011;7789;51.364;12.358;2024-03-02T00:48:05;35.57;;;23.20;;
15381;SDS011;7789;51.364;12.358;2024-03-02T00:53:12;32.90;;;20.77;;
15381;SDS011;7789;51.364;12.358;2024-03-02T00:58:15;29.63;;;21.83;;
15381;SDS011;7789;51.364;12.358;2024-03-02T01:03:19;30.43;;;19.70;;
15381;SDS011;7789;51.364;12.358;2024-03-02T01:08:24;26.63;;;19.50;;
15381;SDS011;7789;51.364;12.358;2024-03-02T01:13:33;34.13;;;19.60;;
15381;SDS011;7789;51.364;12.358;2024-03-02T01:18:38;28.33;;;20.03;;
15381;SDS011;7789;51.364;12.358;2024-03-02T01:23:44;27.83;;;19.47;;
15381;SDS011;7789;51.364;12.358;2024-03-02T01:28:47;29.03;;;20.00;;
15381;SDS011;7789;51.364;12.358;2024-03-02T01:33:50;29.00;;;18.93;;
15381;SDS011;7789;51.364;12.358;2024-03-02T01:38:55;25.97;;;19.20;;
15381;SDS011;7789;51.364;12.358;2024-03-02T01:43:59;26.30;;;18.67;;
15381;SDS011;7789;51.364;12.358;2024-03-02T01:49:02;26.20;;;18.20;;
15381;SDS011;7789;51.364;12.358;2024-03-02T01:54:07;26.30;;;17.40;;
15381;SDS011;7789;51.364;12.358;2024-03-02T01:59:11;25.13;;;17.47;;
15381;SDS011;7789;51.364;12.358;2024-03-02T02:04:15;25.77;;;17.60;;
15381;SDS011;7789;51.364;12.358;2024-03-02T02:09:19;24.73;;;16.90;;
15381;SDS011;7789;51.364;12.358;2024-03-02T02:14:24;21.47;;;15.53;;
15381;SDS011;7789;51.364;12.358;2024-03-02T02:19:27;22.37;;;16.20;;
15381;SDS011;7789;51.364;12.358;2024-03-02T02:24:32;20.80;;;14.93;;
15381;SDS011;7789;51.364;12.358;2024-03-02T02:29:36;21.37;;;14.43;;
15381;SDS011;7789;51.364;12.358;2024-03-02T02:34:40;21.57;;;15.77;;
15381;SDS011;7789;51.364;12.358;2024-03-02T02:39:44;23.07;;;16.47;;
15381;SDS011;7789;51.364;12.358;2024-03-02T02:44:48;20.40;;;14.90;;
15381;SDS011;7789;51.364;12.358;2024-03-02T02:49:52;23.73;;;15.33;;
15381;SDS011;7789;51.364;12.358;2024-03-02T02:54:57;22.00;;;13.93;;
15381;SDS011;7789;51.364;12.358;2024-03-02T03:00:01;20.00;;;14.47;;
15381;SDS011;7789;51.364;12.358;2024-03-02T03:05:12;20.93;;;13.90;;
15381;SDS011;7789;51.364;12.358;2024-03-02T03:10:18;20.87;;;13.33;;
15381;SDS011;7789;51.364;12.358;2024-03-02T03:15:23;18.70;;;13.40;;
15381;SDS011;7789;51.364;12.358;2024-03-02T03:20:27;19.37;;;14.27;;
15381;SDS011;7789;51.364;12.358;2024-03-02T03:25:32;17.67;;;13.00;;
15381;SDS011;7789;51.364;12.358;2024-03-02T03:30:36;20.33;;;12.60;;
15381;SDS011;7789;51.364;12.358;2024-03-02T03:35:39;21.07;;;13.90;;
15381;SDS011;7789;51.364;12.358;2024-03-02T03:40:44;17.20;;;13.37;;
15381;SDS011;7789;51.364;12.358;2024-03-02T03:45:47;19.37;;;14.10;;
15381;SDS011;7789;51.364;12.358;2024-03-02T03:50:51;21.07;;;13.13;;
15381;SDS011;7789;51.364;12.358;2024-03-02T03:55:56;21.03;;;12.93;;
15381;SDS011;7789;51.364;12.358;2024-03-02T04:00:59;17.40;;;13.03;;
15381;SDS011;7789;51.364;12.358;2024-03-02T04:06:03;19.30;;;14.00;;
15381;SDS011;7789;51.364;12.358;2024-03-02T04:11:08;19.87;;;13.63;;
15381;SDS011;7789;51.364;12.358;2024-03-02T04:16:11;18.60;;;12.90;;
15381;SDS011;7789;51.364;12.358;2024-03-02T04:21:15;18.40;;;13.30;;
15381;SDS011;7789;51.364;12.358;2024-03-02T04:26:20;18.23;;;12.87;;
15381;SDS011;7789;51.364;12.358;2024-03-02T04:31:23;17.77;;;12.80;;
15381;SDS011;7789;51.364;12.358;2024-03-02T04:36:27;18.40;;;12.63;;
15381;SDS011;7789;51.364;12.358;2024-03-02T04:41:32;17.73;;;12.90;;
15381;SDS011;7789;51.364;12.358;2024-03-02T04:46:35;20.47;;;13.07;;
15381;SDS011;7789;51.364;12.358;2024-03-02T04:51:39;17.50;;;13.47;;
15381;SDS011;7789;51.364;12.358;2024-03-02T04:56:43;18.73;;;13.13;;
15381;SDS011;7789;51.364;12.358;2024-03-02T05:01:52;18.27;;;13.90;;
15381;SDS011;7789;51.364;12.358;2024-03-02T05:06:55;20.40;;;13.10;;
15381;SDS011;7789;51.364;12.358;2024-03-02T05:12:01;16.93;;;11.70;;
15381;SDS011;7789;51.364;12.358;2024-03-02T05:17:31;22.20;;;14.50;;
15381;SDS011;7789;51.364;12.358;2024-03-02T05:22:34;20.77;;;13.97;;
15381;SDS011;7789;51.364;12.358;2024-03-02T05:27:40;21.13;;;13.87;;
15381;SDS011;7789;51.364;12.358;2024-03-02T05:32:43;20.53;;;13.60;;
15381;SDS011;7789;51.364;12.358;2024-03-02T05:37:46;20.63;;;13.93;;
15381;SDS011;7789;51.364;12.358;2024-03-02T05:42:51;17.63;;;13.23;;
15381;SDS011;7789;51.364;12.358;2024-03-02T05:47:54;21.67;;;13.70;;
15381;SDS011;7789;51.364;12.358;2024-03-02T05:52:57;22.57;;;14.57;;
15381;SDS011;7789;51.364;12.358;2024-03-02T05:58:02;20.13;;;14.07;;
15381;SDS011;7789;51.364;12.358;2024-03-02T06:03:22;22.83;;;14.60;;
15381;SDS011;7789;51.364;12.358;2024-03-02T06:08:25;19.47;;;14.13;;
15381;SDS011;7789;51.364;12.358;2024-03-02T06:13:30;19.23;;;15.00;;
15381;SDS011;7789;51.364;12.358;2024-03-02T06:18:33;19.43;;;13.83;;
15381;SDS011;7789;51.364;12.358;2024-03-02T06:23:37;22.23;;;14.43;;
15381;SDS011;7789;51.364;12.358;2024-03-02T06:28:42;21.83;;;14.80;;
15381;SDS011;7789;51.364;12.358;2024-03-02T06:33:46;20.20;;;14.20;;
15381;SDS011;7789;51.364;12.358;2024-03-02T06:38:50;22.50;;;15.07;;
15381;SDS011;7789;51.364;12.358;2024-03-02T06:43:54;21.17;;;14.27;;
15381;SDS011;7789;51.364;12.358;2024-03-02T06:49:01;22.90;;;15.87;;
15381;SDS011;7789;51.364;12.358;2024-03-02T06:54:05;22.77;;;15.60;;
15381;SDS011;7789;51.364;12.358;2024-03-02T06:59:11;24.13;;;16.87;;
15381;SDS011;7789;51.364;12.358;2024-03-02T07:04:14;22.50;;;16.70;;
15381;SDS011;7789;51.364;12.358;2024-03-02T07:09:18;21.80;;;15.77;;
15381;SDS011;7789;51.364;12.358;2024-03-02T07:14:25;24.30;;;16.50;;
15381;SDS011;7789;51.364;12.358;2024-03-02T07:19:49;24.73;;;16.70;;
15381;SDS011;7789;51.364;12.358;2024-03-02T07:24:52;22.97;;;15.87;;
15381;SDS011;7789;51.364;12.358;2024-03-02T07:30:00;24.13;;;16.67;;
15381;SDS011;7789;51.364;12.358;2024-03-02T07:35:12;25.70;;;17.37;;
15381;SDS011;7789;51.364;12.358;2024-03-02T07:40:16;27.07;;;16.43;;
15381;SDS011;7789;51.364;12.358;2024-03-02T07:45:21;20.57;;;15.00;;
15381;SDS011;7789;51.364;12.358;2024-03-02T07:50:25;20.97;;;15.13;;
15381;SDS011;7789;51.364;12.358;2024-03-02T07:55:29;22.27;;;15.73;;
15381;SDS011;7789;51.364;12.358;2024-03-02T08:00:34;19.13;;;13.73;;
15381;SDS011;7789;51.364;12.358;2024-03-02T08:05:38;23.00;;;15.70;;
15381;SDS011;7789;51.364;12.358;2024-03-02T08:10:42;21.37;;;14.33;;
15381;SDS011;7789;51.364;12.358;2024-03-02T08:15:52;23.73;;;15.43;;
15381;SDS011;7789;51.364;12.358;2024-03-02T08:20:56;22.80;;;15.77;;
15381;SDS011;7789;51.364;12.358;2024-03-02T08:25:59;19.70;;;14.40;;
15381;SDS011;7789;51.364;12.358;2024-03-02T08:31:05;21.33;;;14.50;;
15381;SDS011;7789;51.364;12.358;2024-03-02T08:36:08;19.93;;;14.57;;
15381;SDS011;7789;51.364;12.358;2024-03-02T08:41:13;19.47;;;14.20;;
15381;SDS011;7789;51.364;12.358;2024-03-02T08:46:19;22.10;;;14.63;;
15381;SDS011;7789;51.364;12.358;2024-03-02T08:51:23;22.30;;;15.63;;
15381;SDS011;7789;51.364;12.358;2024-03-02T08:56:26;22.33;;;15.17;;
15381;SDS011;7789;51.364;12.358;2024-03-02T09:01:31;21.37;;;14.80;;
15381;SDS011;7789;51.364;12.358;2024-03-02T09:06:44;19.30;;;14.87;;
15381;SDS011;7789;51.364;12.358;2024-03-02T09:11:47;21.33;;;15.07;;
15381;SDS011;7789;51.364;12.358;2024-03-02T09:16:53;24.47;;;15.47;;
15381;SDS011;7789;51.364;12.358;2024-03-02T09:21:57;18.77;;;15.07;;
15381;SDS011;7789;51.364;12.358;2024-03-02T09:27:01;22.27;;;15.43;;
15381;SDS011;7789;51.364;12.358;2024-03-02T09:32:12;20.05;;;14.88;;
15381;SDS011;7789;51.364;12.358;2024-03-02T09:37:16;19.63;;;14.80;;
15381;SDS011;7789;51.364;12.358;2024-03-02T09:42:19;18.25;;;14.05;;
15381;SDS011;7789;51.364;12.358;2024-03-02T09:47:26;18.70;;;14.25;;
15381;SDS011;7789;51.364;12.358;2024-03-02T09:52:30;18.02;;;13.55;;
15381;SDS011;7789;51.364;12.358;2024-03-02T09:57:34;18.30;;;14.43;;
15381;SDS011;7789;51.364;12.358;2024-03-02T10:02:42;19.00;;;13.40;;
15381;SDS011;7789;51.364;12.358;2024-03-02T10:07:48;18.17;;;13.95;;
15381;SDS011;7789;51.364;12.358;2024-03-02T10:13:03;17.65;;;13.48;;
15381;SDS011;7789;51.364;12.358;2024-03-02T10:18:12;17.48;;;13.45;;
15381;SDS011;7789;51.364;12.358;2024-03-02T10:23:18;17.23;;;12.35;;
15381;SDS011;7789;51.364;12.358;2024-03-02T10:28:22;15.30;;;12.23;;
15381;SDS011;7789;51.364;12.358;2024-03-02T10:33:27;14.57;;;10.80;;
15381;SDS011;7789;51.364;12.358;2024-03-02T10:38:31;16.55;;;10.98;;
15381;SDS011;7789;51.364;12.358;2024-03-02T10:43:34;14.82;;;11.30;;
15381;SDS011;7789;51.364;12.358;2024-03-02T10:48:40;11.80;;;9.63;;
15381;SDS011;7789;51.364;12.358;2024-03-02T10:53:46;12.52;;;9.88;;
15381;SDS011;7789;51.364;12.358;2024-03-02T10:58:50;11.90;;;10.25;;
15381;SDS011;7789;51.364;12.358;2024-03-02T11:03:59;9.68;;;7.18;;
15381;SDS011;7789;51.364;12.358;2024-03-02T11:09:07;8.32;;;6.35;;
15381;SDS011;7789;51.364;12.358;2024-03-02T11:14:13;9.25;;;6.75;;
15381;SDS011;7789;51.364;12.358;2024-03-02T11:19:20;7.97;;;6.05;;
15381;SDS011;7789;51.364;12.358;2024-03-02T11:24:31;10.48;;;6.90;;
15381;SDS011;7789;51.364;12.358;2024-03-02T11:29:43;8.85;;;7.03;;
15381;SDS011;7789;51.364;12.358;2024-03-02T11:34:49;9.50;;;7.43;;
15381;SDS011;7789;51.364;12.358;2024-03-02T11:39:53;7.63;;;6.68;;
15381;SDS011;7789;51.364;12.358;2024-03-02T11:44:57;9.60;;;7.32;;
15381;SDS011;7789;51.364;12.358;2024-03-02T11:50:05;10.52;;;7.03;;
15381;SDS011;7789;51.364;12.358;2024-03-02T11:55:09;9.93;;;7.63;;
15381;SDS011;7789;51.364;12.358;2024-03-02T12:00:16;9.98;;;7.65;;
15381;SDS011;7789;51.364;12.358;2024-03-02T12:05:25;9.70;;;7.60;;
15381;SDS011;7789;51.364;12.358;2024-03-02T12:10:29;9.60;;;7.50;;
15381;SDS011;7789;51.364;12.358;2024-03-02T12:15:34;8.65;;;6.70;;
15381;SDS011;7789;51.364;12.358;2024-03-02T12:20:41;7.75;;;5.90;;
15381;SDS011;7789;51.364;12.358;2024-03-02T12:25:44;8.35;;;6.32;;
15381;SDS011;7789;51.364;12.358;2024-03-02T12:30:56;8.07;;;6.07;;
15381;SDS011;7789;51.364;12.358;2024-03-02T12:36:01;8.15;;;6.28;;
15381;SDS011;7789;51.364;12.358;2024-03-02T12:41:08;8.82;;;6.65;;
15381;SDS011;7789;51.364;12.358;2024-03-02T12:46:17;8.90;;;5.78;;
15381;SDS011;7789;51.364;12.358;2024-03-02T12:51:22;7.28;;;5.43;;
15381;SDS011;7789;51.364;12.358;2024-03-02T12:56:25;9.82;;;6.35;;
15381;SDS011;7789;51.364;12.358;2024-03-02T13:01:31;8.02;;;6.22;;
15381;SDS011;7789;51.364;12.358;2024-03-02T13:06:36;7.65;;;6.10;;
15381;SDS011;7789;51.364;12.358;2024-03-02T13:11:40;5.30;;;4.63;;
15381;SDS011;7789;51.364;12.358;2024-03-02T13:16:44;6.07;;;4.88;;
15381;SDS011;7789;51.364;12.358;2024-03-02T13:21:50;5.82;;;4.70;;
15381;SDS011;7789;51.364;12.358;2024-03-02T13:26:54;6.15;;;5.10;;
15381;SDS011;7789;51.364;12.358;2024-03-02T13:32:00;5.63;;;4.78;;
15381;SDS011;7789;51.364;12.358;2024-03-02T13:37:05;5.60;;;4.82;;
15381;SDS011;7789;51.364;12.358;2024-03-02T13:42:08;5.20;;;4.70;;
15381;SDS011;7789;51.364;12.358;2024-03-02T13:47:14;6.13;;;5.25;;
15381;SDS011;7789;51.364;12.358;2024-03-02T13:52:18;7.15;;;5.53;;
15381;SDS011;7789;51.364;12.358;2024-03-02T13:57:22;7.13;;;6.07;;
15381;SDS011;7789;51.364;12.358;2024-03-02T14:02:28;6.85;;;5.82;;
15381;SDS011;7789;51.364;12.358;2024-03-02T14:07:33;6.15;;;5.05;;
15381;SDS011;7789;51.364;12.358;2024-03-02T14:12:37;6.78;;;5.78;;
15381;SDS011;7789;51.364;12.358;2024-03-02T14:17:44;4.63;;;4.22;;
15381;SDS011;7789;51.364;12.358;2024-03-02T14:22:49;5.18;;;4.60;;
15381;SDS011;7789;51.364;12.358;2024-03-02T14:27:52;5.70;;;4.90;;
15381;SDS011;7789;51.364;12.358;2024-03-02T14:33:15;5.32;;;4.53;;
15381;SDS011;7789;51.364;12.358;2024-03-02T14:38:21;5.97;;;4.68;;
15381;SDS011;7789;51.364;12.358;2024-03-02T14:43:24;4.95;;;4.45;;
15381;SDS011;7789;51.364;12.358;2024-03-02T14:48:27;6.30;;;4.40;;
15381;SDS011;7789;51.364;12.358;2024-03-02T14:53:32;4.80;;;3.72;;
15381;SDS011;7789;51.364;12.358;2024-03-02T14:58:36;5.55;;;4.05;;
15381;SDS011;7789;51.364;12.358;2024-03-02T15:03:39;4.40;;;3.58;;
15381;SDS011;7789;51.364;12.358;2024-03-02T15:08:44;4.68;;;3.88;;
15381;SDS011;7789;51.364;12.358;2024-03-02T15:13:52;4.18;;;3.35;;
15381;SDS011;7789;51.364;12.358;2024-03-02T15:18:56;4.13;;;3.47;;
15381;SDS011;7789;51.364;12.358;2024-03-02T15:24:01;3.70;;;2.78;;
15381;SDS011;7789;51.364;12.358;2024-03-02T15:29:05;3.90;;;3.05;;
15381;SDS011;7789;51.364;12.358;2024-03-02T15:34:08;4.40;;;3.42;;
15381;SDS011;7789;51.364;12.358;2024-03-02T15:39:13;4.00;;;3.53;;
15381;SDS011;7789;51.364;12.358;2024-03-02T15:44:17;4.70;;;3.80;;
15381;SDS011;7789;51.364;12.358;2024-03-02T15:49:20;4.85;;;3.90;;
15381;SDS011;7789;51.364;12.358;2024-03-02T15:54:26;4.97;;;3.78;;
15381;SDS011;7789;51.364;12.358;2024-03-02T15:59:30;6.63;;;4.40;;
15381;SDS011;7789;51.364;12.358;2024-03-02T16:04:33;5.57;;;4.75;;
15381;SDS011;7789;51.364;12.358;2024-03-02T16:09:38;5.32;;;4.10;;
15381;SDS011;7789;51.364;12.358;2024-03-02T16:14:41;4.55;;;3.72;;
15381;SDS011;7789;51.364;12.358;2024-03-02T16:19:45;5.93;;;4.35;;
15381;SDS011;7789;51.364;12.358;2024-03-02T16:24:51;7.45;;;4.97;;
15381;SDS011;7789;51.364;12.358;2024-03-02T16:29:54;6.68;;;4.88;;
15381;SDS011;7789;51.364;12.358;2024-03-02T16:34:59;7.85;;;5.35;;
15381;SDS011;7789;51.364;12.358;2024-03-02T16:40:05;9.15;;;5.63;;
15381;SDS011;7789;51.364;12.358;2024-03-02T16:45:10;11.38;;;5.75;;
15381;SDS011;7789;51.364;12.358;2024-03-02T16:50:14;8.55;;;5.32;;
15381;SDS011;7789;51.364;12.358;2024-03-02T16:55:19;6.68;;;5.38;;
15381;SDS011;7789;51.364;12.358;2024-03-02T17:00:25;8.55;;;6.03;;
15381;SDS011;7789;51.364;12.358;2024-03-02T17:05:29;8.68;;;6.22;;
15381;SDS011;7789;51.364;12.358;2024-03-02T17:10:35;9.82;;;6.43;;
15381;SDS011;7789;51.364;12.358;2024-03-02T17:15:39;8.75;;;6.68;;
15381;SDS011;7789;51.364;12.358;2024-03-02T17:20:45;10.10;;;7.93;;
15381;SDS011;7789;51.364;12.358;2024-03-02T17:25:50;11.68;;;7.63;;
15381;SDS011;7789;51.364;12.358;2024-03-02T17:30:54;12.73;;;9.45;;
15381;SDS011;7789;51.364;12.358;2024-03-02T17:35:58;17.55;;;10.60;;
15381;SDS011;7789;51.364;12.358;2024-03-02T17:41:03;13.38;;;10.77;;
15381;SDS011;7789;51.364;12.358;2024-03-02T17:46:07;16.17;;;10.80;;
15381;SDS011;7789;51.364;12.358;2024-03-02T17:51:11;16.75;;;12.57;;
15381;SDS011;7789;51.364;12.358;2024-03-02T17:56:16;18.63;;;12.80;;
15381;SDS011;7789;51.364;12.358;2024-03-02T18:01:20;17.92;;;12.65;;
15381;SDS011;7789;51.364;12.358;2024-03-02T18:06:27;19.65;;;12.98;;
15381;SDS011;7789;51.364;12.358;2024-03-02T18:11:34;19.80;;;13.10;;
15381;SDS011;7789;51.364;12.358;2024-03-02T18:16:37;18.17;;;13.23;;
15381;SDS011;7789;51.364;12.358;2024-03-02T18:21:41;19.75;;;14.02;;
15381;SDS011;7789;51.364;12.358;2024-03-02T18:26:46;20.80;;;14.50;;
15381;SDS011;7789;51.364;12.358;2024-03-02T18:31:49;21.57;;;15.37;;
15381;SDS011;7789;51.364;12.358;2024-03-02T18:36:54;20.97;;;15.10;;
15381;SDS011;7789;51.364;12.358;2024-03-02T18:42:00;21.43;;;16.30;;
15381;SDS011;7789;51.364;12.358;2024-03-02T18:47:04;21.70;;;16.33;;
15381;SDS011;7789;51.364;12.358;2024-03-02T18:52:07;21.33;;;16.90;;
15381;SDS011;7789;51.364;12.358;2024-03-02T18:57:12;23.13;;;17.57;;
15381;SDS011;7789;51.364;12.358;2024-03-02T19:02:16;24.33;;;17.60;;
15381;SDS011;7789;51.364;12.358;2024-03-02T19:07:19;26.23;;;18.00;;
15381;SDS011;7789;51.364;12.358;2024-03-02T19:12:25;22.37;;;18.13;;
15381;SDS011;7789;51.364;12.358;2024-03-02T19:17:29;24.20;;;19.00;;
15381;SDS011;7789;51.364;12.358;2024-03-02T19:22:36;25.47;;;19.20;;
15381;SDS011;7789;51.364;12.358;2024-03-02T19:27:41;26.37;;;19.83;;
15381;SDS011;7789;51.364;12.358;2024-03-02T19:32:45;27.17;;;20.77;;
15381;SDS011;7789;51.364;12.358;2024-03-02T19:37:50;23.23;;;19.47;;
15381;SDS011;7789;51.364;12.358;2024-03-02T19:43:02;30.13;;;22.03;;
15381;SDS011;7789;51.364;12.358;2024-03-02T19:48:05;29.00;;;22.10;;
15381;SDS011;7789;51.364;12.358;2024-03-02T19:53:09;32.00;;;22.03;;
15381;SDS011;7789;51.364;12.358;2024-03-02T19:58:43;28.20;;;22.20;;
15381;SDS011;7789;51.364;12.358;2024-03-02T20:03:48;32.30;;;23.07;;
15381;SDS011;7789;51.364;12.358;2024-03-02T20:08:52;28.93;;;22.13;;
15381;SDS011;7789;51.364;12.358;2024-03-02T20:13:56;33.77;;;23.23;;
15381;SDS011;7789;51.364;12.358;2024-03-02T20:19:00;32.40;;;23.20;;
15381;SDS011;7789;51.364;12.358;2024-03-02T20:24:04;28.97;;;21.83;;
15381;SDS011;7789;51.364;12.358;2024-03-02T20:29:10;32.87;;;22.27;;
15381;SDS011;7789;51.364;12.358;2024-03-02T20:34:13;27.93;;;22.17;;
15381;SDS011;7789;51.364;12.358;2024-03-02T20:39:19;27.53;;;21.47;;
15381;SDS011;7789;51.364;12.358;2024-03-02T20:44:24;31.93;;;22.50;;
15381;SDS011;7789;51.364;12.358;2024-03-02T20:49:28;32.70;;;22.83;;
15381;SDS011;7789;51.364;12.358;2024-03-02T20:54:33;30.13;;;22.20;;
15381;SDS011;7789;51.364;12.358;2024-03-02T20:59:39;34.23;;;23.20;;
15381;SDS011;7789;51.364;12.358;2024-03-02T21:04:42;31.03;;;23.63;;
15381;SDS011;7789;51.364;12.358;2024-03-02T21:09:48;28.03;;;22.33;;
15381;SDS011;7789;51.364;12.358;2024-03-02T21:14:53;30.33;;;23.13;;
15381;SDS011;7789;51.364;12.358;2024-03-02T21:19:57;36.67;;;24.17;;
15381;SDS011;7789;51.364;12.358;2024-03-02T21:25:00;32.17;;;24.07;;
15381;SDS011;7789;51.364;12.358;2024-03-02T21:30:13;29.83;;;23.13;;
15381;SDS011;7789;51.364;12.358;2024-03-02T21:35:18;30.67;;;23.40;;
15381;SDS011;7789;51.364;12.358;2024-03-02T21:40:22;32.20;;;24.60;;
15381;SDS011;7789;51.364;12.358;2024-03-02T21:45:32;29.17;;;23.67;;
15381;SDS011;7789;51.364;12.358;2024-03-02T21:50:40;32.67;;;24.57;;
15381;SDS011;7789;51.364;12.358;2024-03-02T21:55:43;32.70;;;24.23;;
15381;SDS011;7789;51.364;12.358;2024-03-02T22:00:52;31.23;;;23.93;;
15381;SDS011;7789;51.364;12.358;2024-03-02T22:05:57;30.47;;;23.17;;
15381;SDS011;7789;51.364;12.358;2024-03-02T22:11:01;31.10;;;22.57;;
15381;SDS011;7789;51.364;12.358;2024-03-02T22:16:09;32.10;;;24.47;;
15381;SDS011;7789;51.364;12.358;2024-03-02T22:21:16;32.73;;;22.70;;
15381;SDS011;7789;51.364;12.358;2024-03-02T22:26:19;29.53;;;22.27;;
15381;SDS011;7789;51.364;12.358;2024-03-02T22:31:27;28.27;;;21.53;;
15381;SDS011;7789;51.364;12.358;2024-03-02T22:36:39;30.40;;;22.57;;
15381;SDS011;7789;51.364;12.358;2024-03-02T22:41:43;30.20;;;21.53;;
15381;SDS011;7789;51.364;12.358;2024-03-02T22:46:49;26.33;;;20.30;;
15381;SDS011;7789;51.364;12.358;2024-03-02T22:51:53;27.90;;;21.37;;
15381;SDS011;7789;51.364;12.358;2024-03-02T22:56:56;32.27;;;22.43;;
15381;SDS011;7789;51.364;12.358;2024-03-02T23:02:02;28.80;;;21.50;;
15381;SDS011;7789;51.364;12.358;2024-03-02T23:07:06;29.90;;;22.13;;
15381;SDS011;7789;51.364;12.358;2024-03-02T23:12:09;27.33;;;21.47;;
15381;SDS011;7789;51.364;12.358;2024-03-02T23:17:15;29.07;;;21.73;;
15381;SDS011;7789;51.364;12.358;2024-03-02T23:22:18;28.40;;;21.33;;
15381;SDS011;7789;51.364;12.358;2024-03-02T23:27:23;32.97;;;22.27;;
15381;SDS011;7789;51.364;12.358;2024-03-02T23:32:28;31.97;;;22.60;;
15381;SDS011;7789;51.364;12.358;2024-03-02T23:37:31;27.30;;;21.03;;
15381;SDS011;7789;51.364;12.358;2024-03-02T23:42:35;31.60;;;21.77;;
15381;SDS011;7789;51.364;12.358;2024-03-02T23:47:40;30.20;;;21.70;;
15381;SDS011;7789;51.364;12.358;2024-03-02T23:52:43;29.00;;;20.90;;
15381;SDS011;7789;51.364;12.358;2024-03-02T23:57:56;27.60;;;20.77;;
